Latest Weather Observations for Red Rocks Point

IDW60801

Issued at 1:03 pm WST Thursday 21 September 2017 (issued every 30 minutes, with the page automatically refreshed every 10 minutes)

About weather observations | Map of weather stations | Latest weather observations for WA | Other Formats
Station Details ID: 011053 Name: RED ROCKS POINT Lat: -32.20 Lon: 127.53 Height: 3.1 m
Data from the previous 72 hours. | See also: Recent months at Red Rocks Point
Date/Time
WST
Temp
°C
App
Temp
°C
Dew
Point
°C
Rel
Hum
%
Delta-T
°C
Wind Press
QNH
hPa
Press
MSL
hPa
Rain since
9am
mm
Dir  Spd
km/h
Gust
km/h
Spd
kts
Gust
kts
21/01:00pm 29.7 25.6 8.7 27 11.6 N 20 30 11 16 1006.4 1006.4 0.0
21/12:30pm 29.1 25.0 8.7 28 11.3 NNW 20 33 11 18 1007.1 1007.1 0.0
21/12:00pm 28.6 24.7 8.8 29 10.9 N 19 35 10 19 1007.7 1007.7 0.0
21/11:30am 27.9 24.1 9.2 31 10.3 N 19 33 10 18 1008.5 1008.5 0.0
21/11:00am 26.9 23.6 9.7 34 9.5 N 17 30 9 16 1009.1 1009.1 0.0
21/10:30am 26.7 23.6 10.4 36 9.1 N 17 28 9 15 1009.8 1009.8 0.0
21/10:00am 25.2 22.1 10.3 39 8.3 N 17 26 9 14 1010.2 1010.2 0.0
21/09:30am 24.2 20.6 9.8 40 7.9 N 19 28 10 15 1010.9 1010.9 0.0
21/09:00am 22.3 18.5 9.8 45 6.8 N 20 28 11 15 1011.3 1011.3 0.0
21/08:30am 20.8 17.0 9.7 49 5.9 N 20 30 11 16 1011.4 1011.4 0.0
21/08:00am 19.0 15.2 9.2 53 5.2 N 19 28 10 15 1011.9 1011.9 0.0
21/07:30am 17.1 14.4 10.5 65 3.5 N 15 24 8 13 1012.3 1012.3 0.0
21/07:00am 14.5 12.6 12.9 90 0.9 N 15 20 8 11 1012.5 1012.5 0.0
21/06:30am 12.3 9.5 11.4 94 0.5 N 17 24 9 13 1012.3 1012.3 0.0
21/06:00am 10.5 6.8 9.6 94 0.5 NNW 19 24 10 13 1012.2 1012.2 0.0
21/05:30am 10.1 6.3 9.2 94 0.4 NNW 19 22 10 12 1012.1 1012.1 0.0
21/05:00am 10.2 6.8 9.3 94 0.4 NNW 17 22 9 12 1011.9 1011.9 0.0
21/04:30am 10.1 6.7 9.0 93 0.5 NNW 17 22 9 12 1012.1 1012.1 0.0
21/04:00am 11.0 8.2 9.9 93 0.6 N 15 19 8 10 1012.2 1012.2 0.0
21/03:30am 10.8 7.5 9.6 92 0.6 NNW 17 20 9 11 1012.1 1012.1 0.0
21/03:00am 10.3 7.6 9.1 92 0.6 NNW 13 15 7 8 1012.2 1012.2 0.0
21/02:30am 9.9 7.0 8.3 90 0.8 N 13 17 7 9 1012.2 1012.2 0.0
21/02:00am 10.7 8.0 8.8 88 0.9 N 13 15 7 8 1012.4 1012.4 0.0
21/01:30am 11.7 11.3 8.4 80 1.6 CALM 0 0 0 0 1012.7 1012.7 0.0
21/01:00am 14.7 13.0 11.3 80 1.8 SE 11 13 6 7 1012.9 1012.9 0.0
21/12:30am 14.9 13.0 11.7 81 1.7 SSE 13 15 7 8 1013.1 1013.1 0.0
21/12:00am 15.0 13.1 11.8 81 1.7 SSE 13 15 7 8 1013.3 1013.3 0.0
 
Date/Time
WST
Temp
°C
App
Temp
°C
Dew
Point
°C
Rel
Hum
%
Delta-T
°C
Wind Press
QNH
hPa
Press
MSL
hPa
Rain since
9am
mm
Dir  Spd
km/h
Gust
km/h
Spd
kts
Gust
kts
20/11:30pm 15.0 12.8 12.1 83 1.6 SE 15 17 8 9 1013.3 1013.3 0.0
20/11:00pm 15.1 12.7 12.6 85 1.4 SSE 17 19 9 10 1013.2 1013.2 0.0
20/10:30pm 15.2 12.8 12.7 85 1.4 SSE 17 20 9 11 1013.3 1013.3 0.0
20/10:00pm 15.1 12.3 12.6 85 1.4 S 19 20 10 11 1013.6 1013.6 0.0
20/09:30pm 15.1 12.2 12.4 84 1.5 S 19 22 10 12 1013.4 1013.4 0.0
20/09:00pm 15.2 12.8 12.5 84 1.5 SSE 17 20 9 11 1013.2 1013.2 0.0
20/08:30pm 15.3 12.8 12.4 83 1.6 SSE 17 20 9 11 1013.1 1013.1 0.0
20/08:00pm 15.3 12.3 12.6 84 1.5 SSE 20 22 11 12 1013.2 1013.2 0.0
20/07:30pm 15.4 12.8 13.1 86 1.3 SSE 19 20 10 11 1013.0 1013.0 0.0
20/07:00pm 15.4 13.1 13.1 86 1.3 SE 17 20 9 11 1012.5 1012.5 0.0
20/06:30pm 15.4 13.5 12.9 85 1.4 ESE 15 17 8 9 1011.8 1011.8 0.0
20/06:00pm 15.4 13.3 12.5 83 1.6 SE 15 15 8 8 1011.5 1011.5 0.0
20/05:30pm 15.5 13.8 12.6 83 1.6 SSE 13 15 7 8 1011.7 1011.7 0.0
20/05:00pm 15.9 14.5 12.3 79 2.0 S 11 15 6 8 1011.7 1011.7 0.0
20/04:30pm 16.8 14.8 12.7 77 2.3 SSW 15 20 8 11 1011.8 1011.8 0.0
20/04:00pm 17.5 15.2 13.0 75 2.5 SSW 17 20 9 11 1011.5 1011.5 0.0
20/03:30pm 17.6 15.3 12.9 74 2.6 SSW 17 22 9 12 1011.1 1011.1 0.0
20/03:00pm 18.6 16.4 13.2 71 3.1 SW 17 24 9 13 1011.0 1011.0 0.0
20/02:30pm 18.8 16.2 13.2 70 3.2 SW 19 22 10 12 1010.9 1010.9 0.0
20/02:00pm 19.4 17.0 13.8 70 3.2 SW 19 26 10 14 1010.7 1010.7 0.0
20/01:30pm 19.4 16.7 13.6 69 3.3 SW 20 30 11 16 1010.6 1010.6 0.0
20/01:00pm 19.9 17.5 13.8 68 3.5 SW 19 28 10 15 1010.7 1010.7 0.0
20/12:30pm 19.5 15.8 13.9 70 3.2 SW 26 35 14 19 1011.0 1011.0 0.0
20/12:00pm 20.2 17.6 13.9 67 3.6 SW 20 30 11 16 1011.1 1011.1 0.0
20/11:30am 19.7 16.0 13.9 69 3.3 SW 26 33 14 18 1011.0 1011.0 0.0
20/11:00am 19.7 16.4 13.9 69 3.3 SW 24 33 13 18 1011.1 1011.1 0.0
20/10:30am 19.8 15.8 14.2 70 3.2 WSW 28 39 15 21 1011.6 1011.6 0.0
20/10:00am 19.9 16.5 13.6 67 3.6 WSW 24 35 13 19 1011.4 1011.4 0.0
20/09:30am 19.5 16.3 13.0 66 3.7 WSW 22 33 12 18 1011.3 1011.3 0.0
20/09:00am 18.7 15.9 13.1 70 3.2 WSW 20 30 11 16 1011.2 1011.2 0.0
20/08:30am 19.0 16.0 13.6 71 3.1 WSW 22 33 12 18 1010.9 1010.9 0.0
20/08:00am 18.1 14.9 13.0 72 2.9 WSW 22 35 12 19 1010.8 1010.8 0.0
20/07:30am 17.8 14.8 12.7 72 2.8 W 20 33 11 18 1010.6 1010.6 0.0
20/07:00am 18.3 15.3 12.5 69 3.2 WSW 20 32 11 17 1010.3 1010.3 0.0
20/06:30am 18.8 15.4 3.8 37 7.1 W 11 15 6 8 1009.7 1009.7 0.0
20/06:00am 19.0 14.9 2.0 32 7.8 WSW 13 20 7 11 1009.6 1009.6 0.0
20/05:30am 19.5 14.7 -2.8 22 9.3 NNW 13 19 7 10 1008.7 1008.7 0.0
20/05:00am 19.8 15.8 -2.5 22 9.4 NW 9 15 5 8 1008.7 1008.7 0.0
20/04:30am 19.3 15.6 -2.9 22 9.2 NW 7 11 4 6 1008.7 1008.7 0.0
20/04:00am 21.0 16.5 -3.5 19 10.2 NW 11 15 6 8 1008.7 1008.7 0.0
20/03:30am 22.4 17.1 -3.8 17 11.0 NNW 15 20 8 11 1008.1 1008.1 0.0
20/03:00am 22.0 17.1 -3.4 18 10.7 N 13 20 7 11 1007.9 1007.9 0.0
20/02:30am 22.8 17.0 -4.3 16 11.3 N 17 22 9 12 1008.0 1008.0 0.0
20/02:00am 23.1 17.0 -4.1 16 11.4 N 19 26 10 14 1007.9 1007.9 0.0
20/01:30am 22.8 16.7 -4.3 16 11.3 N 19 28 10 15 1008.4 1008.4 0.0
20/01:00am 22.9 17.1 -4.2 16 11.3 N 17 32 9 17 1009.2 1009.2 0.0
20/12:30am 23.3 17.1 -4.8 15 11.6 N 19 28 10 15 1009.8 1009.8 0.0
20/12:00am 22.6 17.3 -3.7 17 11.1 N 15 20 8 11 1009.9 1009.9 0.0
 
Date/Time
WST
Temp
°C
App
Temp
°C
Dew
Point
°C
Rel
Hum
%
Delta-T
°C
Wind Press
QNH
hPa
Press
MSL
hPa
Rain since
9am
mm
Dir  Spd
km/h
Gust
km/h
Spd
kts
Gust
kts
19/11:30pm 22.2 16.2 -3.2 18 10.7 N 19 26 10 14 1010.0 1010.0 0.0
19/11:00pm 20.9 14.8 -3.6 19 10.2 N 19 26 10 14 1010.1 1010.1 0.0
19/10:30pm 20.8 15.1 -3.6 19 10.1 N 17 28 9 15 1010.8 1010.8 0.0
19/10:00pm 19.7 14.4 -3.9 20 9.6 N 15 20 8 11 1011.5 1011.5 0.0
19/09:30pm 18.9 13.5 -4.5 20 9.3 N 15 20 8 11 1012.0 1012.0 0.0
19/09:00pm 20.0 14.2 -5.0 18 10.0 N 17 20 9 11 1012.4 1012.4 0.0
19/08:30pm 20.0 14.5 -5.0 18 10.0 N 15 20 8 11 1012.8 1012.8 0.0
19/08:00pm 19.7 14.2 -5.3 18 9.9 NNE 15 19 8 10 1013.3 1013.3 0.0
19/07:30pm 18.1 13.5 -4.5 21 8.9 NNE 11 13 6 7 1013.5 1013.5 0.0
19/07:00pm 15.8 11.6 -4.2 25 7.8 NNE 9 9 5 5 1013.7 1013.7 0.0
19/06:30pm 18.3 14.0 -4.4 21 9.0 NNE 9 9 5 5 1013.7 1013.7 0.0
19/06:00pm 21.8 17.4 -5.9 15 11.1 NNE 9 9 5 5 1013.5 1013.5 0.0
19/05:30pm 24.8 20.0 -6.5 12 12.7 N 11 15 6 8 1013.5 1013.5 0.0
19/05:00pm 26.9 21.3 -6.0 11 13.8 N 15 24 8 13 1013.4 1013.4 0.0
19/04:30pm 28.1 22.1 -6.3 10 14.5 N 17 26 9 14 1013.5 1013.5 0.0
19/04:00pm 28.6 22.3 -6.0 10 14.7 N 19 30 10 16 1013.7 1013.7 0.0
19/03:30pm 28.9 22.0 -5.7 10 14.8 N 22 33 12 18 1014.2 1014.2 0.0
19/03:00pm 29.3 22.1 -5.4 10 15.0 N 24 39 13 21 1014.5 1014.5 0.0
19/02:30pm 28.8 21.7 -4.6 11 14.6 N 24 39 13 21 1015.0 1015.0 0.0
19/02:00pm 29.0 22.7 -4.4 11 14.6 N 20 33 11 18 1015.5 1015.5 0.0
19/01:30pm 28.0 21.7 -4.0 12 14.0 NNW 20 39 11 21 1016.0 1016.0 0.0
19/01:00pm 27.0 19.8 -1.8 15 13.0 N 26 41 14 22 1016.6 1016.6 0.0
19/12:30pm 26.8 20.2 -0.3 17 12.6 N 24 35 13 19 1017.2 1017.2 0.0
19/12:00pm 26.0 20.3 0.6 19 11.9 N 20 30 11 16 1018.2 1018.2 0.0
19/11:30am 25.1 19.2 1.9 22 11.1 N 22 33 12 18 1019.0 1019.0 0.0
19/11:00am 23.9 17.8 2.7 25 10.1 N 24 32 13 17 1019.6 1019.6 0.0
19/10:30am 22.4 16.8 3.5 29 9.1 N 22 35 12 19 1020.3 1020.3 0.0
19/10:00am 21.1 15.9 3.8 32 8.3 N 20 37 11 20 1020.8 1020.8 0.0
19/09:30am 19.1 13.5 3.7 36 7.3 N 22 28 12 15 1021.6 1021.6 0.0
19/09:00am 17.4 11.8 3.7 40 6.4 N 22 32 12 17 1021.9 1021.9 0.0
19/08:30am 15.7 10.2 4.1 46 5.4 N 22 35 12 19 1022.3 1022.3 0.0
19/08:00am 14.1 8.3 4.4 52 4.4 N 24 32 13 17 1022.5 1022.5 0.0
19/07:30am 12.2 6.1 4.7 60 3.4 N 26 39 14 21 1022.8 1022.8 0.0
19/07:00am 10.0 4.2 4.4 68 2.5 N 24 35 13 19 1023.0 1023.0 0.0
19/06:30am 8.2 2.7 3.9 74 1.9 N 22 33 12 18 1023.2 1023.2 0.0
19/06:00am 7.1 1.5 3.5 78 1.5 N 22 33 12 18 1023.4 1023.4 0.0
19/05:30am 6.3 1.1 3.3 81 1.3 N 20 28 11 15 1023.3 1023.3 0.0
19/05:00am 5.8 1.5 3.0 82 1.2 N 15 22 8 12 1023.3 1023.3 0.0
19/04:30am 5.5 1.1 2.7 82 1.1 NNE 15 22 8 12 1023.3 1023.3 0.0
19/04:00am 5.1 0.6 2.1 81 1.2 NNE 15 20 8 11 1023.4 1023.4 0.0
19/03:30am 5.6 0.4 2.4 80 1.3 NNE 19 24 10 13 1023.4 1023.4 0.0
19/03:00am 6.3 1.0 2.9 79 1.4 N 20 26 11 14 1023.5 1023.5 0.0
19/02:30am 6.4 1.3 3.2 80 1.3 N 19 22 10 12 1023.7 1023.7 0.0
19/02:00am 5.7 0.9 2.5 80 1.3 N 17 20 9 11 1024.1 1024.1 0.0
19/01:30am 6.6 1.9 3.0 78 1.5 N 17 20 9 11 1024.3 1024.3 0.0
19/01:00am 7.4 2.4 3.5 76 1.6 N 19 22 10 12 1024.7 1024.7 0.0
19/12:30am 8.0 3.4 3.7 74 1.8 NNE 17 24 9 13 1025.2 1025.2 0.0
19/12:00am 7.8 3.2 3.5 74 1.8 NNE 17 22 9 12 1025.4 1025.4 0.0
 
Date/Time
WST
Temp
°C
App
Temp
°C
Dew
Point
°C
Rel
Hum
%
Delta-T
°C
Wind Press
QNH
hPa
Press
MSL
hPa
Rain since
9am
mm
Dir  Spd
km/h
Gust
km/h
Spd
kts
Gust
kts
18/11:30pm 7.4 3.8 3.1 74 1.8 NNE 11 15 6 8 1025.6 1025.6 0.0
18/11:00pm 7.6 4.0 3.1 73 1.9 NNE 11 11 6 6 1025.8 1025.8 0.0
18/10:30pm 8.5 4.7 3.8 72 2.0 NNE 13 17 7 9 1025.6 1025.6 0.0
18/10:00pm 8.6 5.1 3.6 71 2.1 NNE 11 15 6 8 1025.6 1025.6 0.0
18/09:30pm 11.8 7.4 5.0 63 3.1 ENE 17 22 9 12 1026.2 1026.2 0.0
18/09:00pm 12.9 8.5 6.7 66 3.0 E 19 22 10 12 1026.3 1026.3 0.0
18/08:30pm 12.9 8.3 6.3 64 3.1 E 20 22 11 12 1026.4 1026.4 0.0
18/08:00pm 12.8 8.7 6.2 64 3.1 ESE 17 20 9 11 1026.8 1026.8 0.0
18/07:30pm 12.6 9.1 5.5 62 3.3 SE 13 17 7 9 1027.0 1027.0 0.0
18/07:00pm 12.5 9.0 5.4 62 3.3 SE 13 17 7 9 1026.8 1026.8 0.0
18/06:30pm 12.4 9.2 5.3 62 3.3 ESE 11 13 6 7 1026.4 1026.4 0.0
18/06:00pm 12.2 9.2 4.2 58 3.6 SE 9 15 5 8 1026.1 1026.1 0.0
18/05:30pm 12.4 9.1 4.4 58 3.6 SSE 11 15 6 8 1025.8 1025.8 0.0
18/05:00pm 13.1 9.8 4.8 57 3.8 SSE 11 17 6 9 1025.7 1025.7 0.0
18/04:30pm 13.9 10.5 5.8 58 3.8 SSE 13 19 7 10 1025.6 1025.6 0.0
18/04:00pm 14.5 10.9 5.0 53 4.4 S 13 15 7 8 1025.3 1025.3 0.0
18/03:30pm 15.2 11.3 5.4 52 4.6 S 15 19 8 10 1025.3 1025.3 0.0
18/03:00pm 15.4 11.0 5.0 50 4.9 S 17 20 9 11 1025.0 1025.0 0.0
18/02:30pm 15.7 11.4 5.3 50 4.9 S 17 20 9 11 1024.8 1024.8 0.0
18/02:00pm 16.1 12.2 5.4 49 5.1 S 15 20 8 11 1025.0 1025.0 0.0
18/01:30pm 16.2 12.0 5.8 50 5.0 S 17 20 9 11 1025.2 1025.2 0.0

Other Formats:

Comma delimited format used in spreadsheet applications
http://www.bom.gov.au/fwo/IDW60801/IDW60801.94644.axf

JavaScript Object Notation format (JSON) in row-major order
http://www.bom.gov.au/fwo/IDW60801/IDW60801.94644.json